Brenton Reef — KREQ — position and weather

sailwx.info

Track history (hours):
 
Tides and Currents Weather Stations Pressure Air Temp Water Temp Dewpoint Dewpoint Depression Visibility Wind Speed Wind Dir Waves Ship Positions

Brenton Reef

Owner: Seabulk Tankers, Inc., Fort Lauderdale, FL. More information available from US FCC via Universal Licensing System and Coast Guard Vessel Documentation Center.

Last reported at 2017-Sep-22 02:00 UTC. Time now 2017-Sep-22 18:59 UTC.
Position N 26°06' W 080°07'.

Length 189 m; draft 7.6 m.

Type: Tanker. MMSI: 368004000.

Date/timePositionNaut miles runAvg speedWind from/ knotsBaromVisibWave heightAir tempDewpointWater temp
2017-Sep-22 02:00N 26°06' W 080°07'0 0.0
2017-Sep-22 01:30N 26°06' W 080°07'0 0.0
2017-Sep-22 01:00N 26°06' W 080°07'0 0.0
2017-Sep-22 00:30N 26°06' W 080°07'0 0.0
2017-Sep-22 00:00N 26°06' W 080°07'0 0.0
2017-Sep-21 23:30N 26°06' W 080°07'0 0.0
2017-Sep-21 22:51N 26°06' W 080°07'0 0.0
2017-Sep-21 22:18N 26°06' W 080°07'0 0.0
2017-Sep-21 21:51N 26°06' W 080°07'0 0.0
2017-Sep-21 21:24N 26°06' W 080°07'0 0.0
2017-Sep-21 20:54N 26°06' W 080°07'0 0.0
2017-Sep-21 20:24N 26°06' W 080°07'0 0.0
2017-Sep-21 19:54N 26°06' W 080°07'0 0.1
2017-Sep-21 19:30N 26°06' W 080°07'3 5.9
2017-Sep-21 19:00N 26°05' W 080°04'510.7
2017-Sep-21 18:30N 26°00' W 080°02'4 8.4
2017-Sep-21 18:00N 25°56' W 080°01'816.3
2017-Sep-21 17:30N 25°48' W 079°59'918.3
2017-Sep-21 17:00N 25°39' W 079°58'917.9
2017-Sep-21 16:30N 25°30' W 079°58'192 4.8
2017-Sep-20 00:25N 27°41' W 082°35'613.2
2017-Sep-20 00:00N 27°46' W 082°31'611.1
2017-Sep-19 23:29N 27°50' W 082°27'510.2
2017-Sep-19 23:00N 27°55' W 082°26'1 1.0
2017-Sep-19 22:28N 27°55' W 082°27'0 0.0
2017-Sep-19 21:58N 27°55' W 082°27'0 0.0
2017-Sep-19 21:28N 27°55' W 082°27'0 0.0
2017-Sep-19 20:58N 27°55' W 082°27'0 0.0
2017-Sep-19 20:28N 27°55' W 082°27'0 0.0
2017-Sep-19 19:59N 27°55' W 082°27'0 0.0
2017-Sep-19 19:30N 27°55' W 082°27'0 0.0
2017-Sep-19 19:00N 27°55' W 082°27'0 0.0
2017-Sep-19 18:27N 27°55' W 082°27'0 0.0
2017-Sep-19 18:00N 27°55' W 082°27'0 0.0
2017-Sep-19 17:30N 27°55' W 082°27'0 0.0
2017-Sep-19 16:57N 27°55' W 082°27'0 0.0
2017-Sep-19 16:30N 27°55' W 082°27'0 0.0
2017-Sep-19 16:00N 27°55' W 082°27'0 0.0
2017-Sep-19 15:30N 27°55' W 082°27'0 0.0
2017-Sep-19 15:00N 27°55' W 082°27'0 0.0
2017-Sep-19 14:30N 27°55' W 082°27'0 0.0
2017-Sep-19 14:00N 27°55' W 082°27'0 0.0
2017-Sep-19 13:30N 27°55' W 082°27'0 0.0
2017-Sep-19 13:00N 27°55' W 082°27'0 0.0
2017-Sep-19 12:30N 27°55' W 082°27'0 0.0
2017-Sep-19 12:00N 27°55' W 082°27'0 0.0
2017-Sep-19 11:30N 27°55' W 082°27'0 0.0
2017-Sep-19 11:00N 27°55' W 082°27'0 0.0
2017-Sep-19 10:30N 27°55' W 082°27'0 0.0
2017-Sep-19 10:00N 27°55' W 082°27'0 0.0
2017-Sep-19 09:30N 27°55' W 082°27'0 0.0
2017-Sep-19 09:00N 27°55' W 082°27'0 0.0
2017-Sep-19 08:29N 27°55' W 082°27'0 0.0
2017-Sep-19 07:59N 27°55' W 082°27'0 0.0
2017-Sep-19 07:29N 27°55' W 082°27'0 0.0
2017-Sep-19 06:59N 27°55' W 082°27'0 0.0
2017-Sep-19 06:26N 27°55' W 082°27'0 0.0
2017-Sep-19 05:59N 27°55' W 082°27'0 0.0
2017-Sep-19 05:26N 27°55' W 082°27'0 0.0
2017-Sep-19 04:59N 27°55' W 082°27'0 0.0
2017-Sep-19 04:29N 27°55' W 082°27'0 0.0
2017-Sep-19 03:59N 27°55' W 082°27'0 0.0
2017-Sep-19 03:29N 27°55' W 082°27'0 0.0
2017-Sep-19 02:59N 27°55' W 082°27'0 0.0
2017-Sep-19 02:29N 27°55' W 082°27'0 0.0
2017-Sep-19 01:59N 27°55' W 082°27'0 0.0
2017-Sep-19 01:29N 27°55' W 082°27'0 0.0
2017-Sep-19 00:59N 27°55' W 082°27'0 0.0
2017-Sep-19 00:29N 27°55' W 082°27'0 0.0
2017-Sep-18 23:59N 27°55' W 082°27'0 0.0
2017-Sep-18 23:29N 27°55' W 082°27'0 0.0
2017-Sep-18 22:59N 27°55' W 082°27'0 0.0
2017-Sep-18 22:29N 27°55' W 082°27'0 0.0
2017-Sep-18 21:59N 27°55' W 082°27'0 0.0
2017-Sep-18 21:29N 27°55' W 082°27'0 0.0
2017-Sep-18 20:59N 27°55' W 082°27'0 0.0
2017-Sep-18 20:29N 27°55' W 082°27'0 0.0
2017-Sep-18 19:59N 27°55' W 082°27'0 0.0
2017-Sep-18 19:29N 27°55' W 082°27'0 0.0
2017-Sep-18 18:59N 27°55' W 082°27'0 0.0
2017-Sep-18 18:26N 27°55' W 082°27'0 0.0
2017-Sep-18 17:56N 27°55' W 082°27'0 0.0
2017-Sep-18 17:30N 27°55' W 082°27'1 2.0
2017-Sep-18 17:00N 27°54' W 082°26'5 9.1
2017-Sep-18 16:29N 27°49' W 082°27'510.7
2017-Sep-18 15:59N 27°46' W 082°31'197 6.3
2017-Sep-17 08:47N 25°26' W 079°57'413.9
2017-Sep-17 08:29N 25°30' W 079°57'612.9
2017-Sep-17 08:00N 25°36' W 079°57'713.4
2017-Sep-17 07:30N 25°43' W 079°56'713.8
2017-Sep-17 07:00N 25°50' W 079°55'713.7
2017-Sep-17 06:30N 25°56' W 079°55'5314.0
2017-Sep-17 02:42N 26°50' W 079°55'314.1
2017-Sep-17 02:29N 26°53' W 079°55'713.9
2017-Sep-17 02:00N 26°59' W 079°54'  
2017-Sep-14 15:06N 38°55' W 075°06'2 9.5
2017-Sep-14 14:54N 38°56' W 075°06'512.2
2017-Sep-14 14:30N 39°01' W 075°09'612.4
2017-Sep-14 14:00N 39°06' W 075°12'612.8
2017-Sep-14 13:30N 39°12' W 075°17'612.9
2017-Sep-14 13:00N 39°17' W 075°22'613.0
2017-Sep-14 12:30N 39°22' W 075°27'612.4
2017-Sep-14 12:00N 39°26' W 075°33'510.7
2017-Sep-14 11:31N 39°32' W 075°33'5 9.0
2017-Sep-14 11:00N 39°36' W 075°34'3 6.9
2017-Sep-14 10:31N 39°39' W 075°33'4 7.6
2017-Sep-14 10:01N 39°43' W 075°31'4 7.8
2017-Sep-14 09:30N 39°46' W 075°28'4 7.1
2017-Sep-14 09:00N 39°48' W 075°25'1 1.4
2017-Sep-14 08:29N 39°49' W 075°24'0 0.2
2017-Sep-14 07:59N 39°49' W 075°24'0 0.3
2017-Sep-14 07:29N 39°49' W 075°24'0 0.1
2017-Sep-14 06:59N 39°49' W 075°24'0 0.0
2017-Sep-14 06:29N 39°49' W 075°24'0 0.1
2017-Sep-14 05:59N 39°49' W 075°24'0 0.0
2017-Sep-14 05:29N 39°49' W 075°24'0 0.0
2017-Sep-14 04:59N 39°49' W 075°24'0 0.0
2017-Sep-14 04:29N 39°49' W 075°24'0 0.0
2017-Sep-14 03:59N 39°49' W 075°24'0 0.0
2017-Sep-14 03:29N 39°49' W 075°24'0 0.1
2017-Sep-14 02:59N 39°49' W 075°24'0 0.0
2017-Sep-14 02:29N 39°49' W 075°24'0 0.0
2017-Sep-14 01:59N 39°49' W 075°24'0 0.0
2017-Sep-14 01:30N 39°49' W 075°24'0 0.1
2017-Sep-14 01:00N 39°49' W 075°24'0 0.8
2017-Sep-14 00:31N 39°49' W 075°24'2 3.6
2017-Sep-14 00:00N 39°50' W 075°22'3 7.0
2017-Sep-13 23:31N 39°51' W 075°17'3 6.7
2017-Sep-13 23:00N 39°52' W 075°13'3 5.7
2017-Sep-13 22:31N 39°53' W 075°10'0 0.5
2017-Sep-13 22:00N 39°53' W 075°09'0 0.0
2017-Sep-13 21:30N 39°53' W 075°09'0 0.0
2017-Sep-13 21:00N 39°53' W 075°09'0 0.0
2017-Sep-13 20:30N 39°53' W 075°09'0 0.0
2017-Sep-13 19:57N 39°53' W 075°09'0 0.0
2017-Sep-13 19:30N 39°53' W 075°09'0 0.0
2017-Sep-13 18:54N 39°53' W 075°09'0 0.0
2017-Sep-13 18:30N 39°53' W 075°09'0 0.0
2017-Sep-13 18:00N 39°53' W 075°09'0 0.0
2017-Sep-13 17:30N 39°53' W 075°09'0 0.0
2017-Sep-13 17:00N 39°53' W 075°09'0 0.0
2017-Sep-13 16:30N 39°53' W 075°09'0 0.0
2017-Sep-13 15:57N 39°53' W 075°09'0 0.0
2017-Sep-13 15:30N 39°53' W 075°09'0 0.0
2017-Sep-13 14:59N 39°53' W 075°09'0 0.0
2017-Sep-13 14:29N 39°53' W 075°09'0 0.0
2017-Sep-13 13:59N 39°53' W 075°09'0 0.0
2017-Sep-13 13:26N 39°53' W 075°09'0 0.0
2017-Sep-13 12:59N 39°53' W 075°09'0 0.0
2017-Sep-13 12:29N 39°53' W 075°09'0 0.0
2017-Sep-13 11:59N 39°53' W 075°09'0 0.0
2017-Sep-13 11:29N 39°53' W 075°09'0 0.0
2017-Sep-13 10:59N 39°53' W 075°09'0 0.0
2017-Sep-13 10:29N 39°53' W 075°09'0 0.0
2017-Sep-13 09:59N 39°53' W 075°09'0 0.0
2017-Sep-13 09:29N 39°53' W 075°09'0 0.0
2017-Sep-13 08:59N 39°53' W 075°09'0 0.0
2017-Sep-13 08:29N 39°53' W 075°09'0 0.0
2017-Sep-13 07:59N 39°53' W 075°09'0 0.0
2017-Sep-13 07:29N 39°53' W 075°09'0 0.0
2017-Sep-13 06:59N 39°53' W 075°09'0 0.0
2017-Sep-13 06:29N 39°53' W 075°09'0 0.0
2017-Sep-13 05:58N 39°53' W 075°09'0 0.0
2017-Sep-13 05:28N 39°53' W 075°09'0 0.0
2017-Sep-13 04:58N 39°53' W 075°09'0 0.0
2017-Sep-13 04:28N 39°53' W 075°09'0 0.0
2017-Sep-13 03:58N 39°53' W 075°09'0 0.0
2017-Sep-13 03:28N 39°53' W 075°09'0 0.0
2017-Sep-13 02:58N 39°53' W 075°09'0 0.0
2017-Sep-13 02:28N 39°53' W 075°09'0 0.0
2017-Sep-13 01:58N 39°53' W 075°09'0 0.0
2017-Sep-13 01:28N 39°53' W 075°09'0 0.0
2017-Sep-13 00:58N 39°53' W 075°09'0 0.0
2017-Sep-13 00:28N 39°53' W 075°09'0 0.0
2017-Sep-12 23:58N 39°53' W 075°09'0 0.0
2017-Sep-12 23:28N 39°53' W 075°09'0 0.0
2017-Sep-12 22:58N 39°53' W 075°09'0 0.0
2017-Sep-12 22:28N 39°53' W 075°09'0 0.0
2017-Sep-12 21:58N 39°53' W 075°09'0 0.0
2017-Sep-12 21:28N 39°53' W 075°09'0 0.0
2017-Sep-12 20:58N 39°53' W 075°09'0 0.0
2017-Sep-12 20:28N 39°53' W 075°09'0 0.0
2017-Sep-12 19:55N 39°53' W 075°09'0 0.0
2017-Sep-12 19:28N 39°53' W 075°09'0 0.0
2017-Sep-12 18:58N 39°53' W 075°09'0 0.0
2017-Sep-12 18:28N 39°53' W 075°09'0 0.0
2017-Sep-12 17:58N 39°53' W 075°09'0 0.0
2017-Sep-12 17:28N 39°53' W 075°09'0 0.0
2017-Sep-12 16:58N 39°53' W 075°09'0 0.0
2017-Sep-12 16:28N 39°53' W 075°09'0 0.0
2017-Sep-12 15:58N 39°53' W 075°09'0 0.0
2017-Sep-12 15:28N 39°53' W 075°09'0 0.0
2017-Sep-12 14:58N 39°53' W 075°09'0 0.0
2017-Sep-12 14:31N 39°53' W 075°09'0 0.0
2017-Sep-12 14:01N 39°53' W 075°09'0 0.0
2017-Sep-12 13:28N 39°53' W 075°09'0 0.0
2017-Sep-12 13:00N 39°53' W 075°09'0 0.0
2017-Sep-12 09:16N 39°53' W 075°09'0 0.0
2017-Sep-12 09:00N 39°53' W 075°09'0 0.0
2017-Sep-12 08:30N 39°53' W 075°09'0 0.0
2017-Sep-12 08:01N 39°53' W 075°09'0 0.0
2017-Sep-12 07:31N 39°53' W 075°09'0 0.0
2017-Sep-12 07:01N 39°53' W 075°09'0 0.0
2017-Sep-12 06:31N 39°53' W 075°09'0 0.0
2017-Sep-12 06:01N 39°53' W 075°09'0 0.0
2017-Sep-12 05:30N 39°53' W 075°09'0 0.0
2017-Sep-12 05:00N 39°53' W 075°09'0 0.0
2017-Sep-12 04:30N 39°53' W 075°09'0 0.0
2017-Sep-12 04:01N 39°53' W 075°09'0 0.0
2017-Sep-12 03:31N 39°53' W 075°09'0 0.0
2017-Sep-12 03:01N 39°53' W 075°09'0 0.0
2017-Sep-12 02:31N 39°53' W 075°09'0 0.0
2017-Sep-12 02:00N 39°53' W 075°09'  
Track history (hours):
 
Tides and Currents Weather Stations Pressure Air Temp Water Temp Dewpoint Dewpoint Depression Visibility Wind Speed Wind Dir Waves Ship Positions

Brenton Reef

Owner: Seabulk Tankers, Inc., Fort Lauderdale, FL. More information available from US FCC via Universal Licensing System and Coast Guard Vessel Documentation Center.

Last reported at 2017-Sep-22 02:00 UTC. Time now 2017-Sep-22 18:59 UTC.
Position N 26°06' W 080°07'.

Length 189 m; draft 7.6 m.

Type: Tanker. MMSI: 368004000.

Date/timePositionNaut miles runAvg speedWind from/ knotsBaromVisibWave heightAir tempDewpointWater temp
2017-Sep-22 02:00N 26°06' W 080°07'0 0.0
2017-Sep-22 01:30N 26°06' W 080°07'0 0.0
2017-Sep-22 01:00N 26°06' W 080°07'0 0.0
2017-Sep-22 00:30N 26°06' W 080°07'0 0.0
2017-Sep-22 00:00N 26°06' W 080°07'0 0.0
2017-Sep-21 23:30N 26°06' W 080°07'0 0.0
2017-Sep-21 22:51N 26°06' W 080°07'0 0.0
2017-Sep-21 22:18N 26°06' W 080°07'0 0.0
2017-Sep-21 21:51N 26°06' W 080°07'0 0.0
2017-Sep-21 21:24N 26°06' W 080°07'0 0.0
2017-Sep-21 20:54N 26°06' W 080°07'0 0.0
2017-Sep-21 20:24N 26°06' W 080°07'0 0.0
2017-Sep-21 19:54N 26°06' W 080°07'0 0.1
2017-Sep-21 19:30N 26°06' W 080°07'3 5.9
2017-Sep-21 19:00N 26°05' W 080°04'510.7
2017-Sep-21 18:30N 26°00' W 080°02'4 8.4
2017-Sep-21 18:00N 25°56' W 080°01'816.3
2017-Sep-21 17:30N 25°48' W 079°59'918.3
2017-Sep-21 17:00N 25°39' W 079°58'917.9
2017-Sep-21 16:30N 25°30' W 079°58'192 4.8
2017-Sep-20 00:25N 27°41' W 082°35'613.2
2017-Sep-20 00:00N 27°46' W 082°31'611.1
2017-Sep-19 23:29N 27°50' W 082°27'510.2
2017-Sep-19 23:00N 27°55' W 082°26'1 1.0
2017-Sep-19 22:28N 27°55' W 082°27'0 0.0
2017-Sep-19 21:58N 27°55' W 082°27'0 0.0
2017-Sep-19 21:28N 27°55' W 082°27'0 0.0
2017-Sep-19 20:58N 27°55' W 082°27'0 0.0
2017-Sep-19 20:28N 27°55' W 082°27'0 0.0
2017-Sep-19 19:59N 27°55' W 082°27'0 0.0
2017-Sep-19 19:30N 27°55' W 082°27'0 0.0
2017-Sep-19 19:00N 27°55' W 082°27'0 0.0
2017-Sep-19 18:27N 27°55' W 082°27'0 0.0
2017-Sep-19 18:00N 27°55' W 082°27'0 0.0
2017-Sep-19 17:30N 27°55' W 082°27'0 0.0
2017-Sep-19 16:57N 27°55' W 082°27'0 0.0
2017-Sep-19 16:30N 27°55' W 082°27'0 0.0
2017-Sep-19 16:00N 27°55' W 082°27'0 0.0
2017-Sep-19 15:30N 27°55' W 082°27'0 0.0
2017-Sep-19 15:00N 27°55' W 082°27'0 0.0
2017-Sep-19 14:30N 27°55' W 082°27'0 0.0
2017-Sep-19 14:00N 27°55' W 082°27'0 0.0
2017-Sep-19 13:30N 27°55' W 082°27'0 0.0
2017-Sep-19 13:00N 27°55' W 082°27'0 0.0
2017-Sep-19 12:30N 27°55' W 082°27'0 0.0
2017-Sep-19 12:00N 27°55' W 082°27'0 0.0
2017-Sep-19 11:30N 27°55' W 082°27'0 0.0
2017-Sep-19 11:00N 27°55' W 082°27'0 0.0
2017-Sep-19 10:30N 27°55' W 082°27'0 0.0
2017-Sep-19 10:00N 27°55' W 082°27'0 0.0
2017-Sep-19 09:30N 27°55' W 082°27'0 0.0
2017-Sep-19 09:00N 27°55' W 082°27'0 0.0
2017-Sep-19 08:29N 27°55' W 082°27'0 0.0
2017-Sep-19 07:59N 27°55' W 082°27'0 0.0
2017-Sep-19 07:29N 27°55' W 082°27'0 0.0
2017-Sep-19 06:59N 27°55' W 082°27'0 0.0
2017-Sep-19 06:26N 27°55' W 082°27'0 0.0
2017-Sep-19 05:59N 27°55' W 082°27'0 0.0
2017-Sep-19 05:26N 27°55' W 082°27'0 0.0
2017-Sep-19 04:59N 27°55' W 082°27'0 0.0
2017-Sep-19 04:29N 27°55' W 082°27'0 0.0
2017-Sep-19 03:59N 27°55' W 082°27'0 0.0
2017-Sep-19 03:29N 27°55' W 082°27'0 0.0
2017-Sep-19 02:59N 27°55' W 082°27'0 0.0
2017-Sep-19 02:29N 27°55' W 082°27'0 0.0
2017-Sep-19 01:59N 27°55' W 082°27'0 0.0
2017-Sep-19 01:29N 27°55' W 082°27'0 0.0
2017-Sep-19 00:59N 27°55' W 082°27'0 0.0
2017-Sep-19 00:29N 27°55' W 082°27'0 0.0
2017-Sep-18 23:59N 27°55' W 082°27'0 0.0
2017-Sep-18 23:29N 27°55' W 082°27'0 0.0
2017-Sep-18 22:59N 27°55' W 082°27'0 0.0
2017-Sep-18 22:29N 27°55' W 082°27'0 0.0
2017-Sep-18 21:59N 27°55' W 082°27'0 0.0
2017-Sep-18 21:29N 27°55' W 082°27'0 0.0
2017-Sep-18 20:59N 27°55' W 082°27'0 0.0
2017-Sep-18 20:29N 27°55' W 082°27'0 0.0
2017-Sep-18 19:59N 27°55' W 082°27'0 0.0
2017-Sep-18 19:29N 27°55' W 082°27'0 0.0
2017-Sep-18 18:59N 27°55' W 082°27'0 0.0
2017-Sep-18 18:26N 27°55' W 082°27'0 0.0
2017-Sep-18 17:56N 27°55' W 082°27'0 0.0
2017-Sep-18 17:30N 27°55' W 082°27'1 2.0
2017-Sep-18 17:00N 27°54' W 082°26'5 9.1
2017-Sep-18 16:29N 27°49' W 082°27'510.7
2017-Sep-18 15:59N 27°46' W 082°31'197 6.3
2017-Sep-17 08:47N 25°26' W 079°57'413.9
2017-Sep-17 08:29N 25°30' W 079°57'612.9
2017-Sep-17 08:00N 25°36' W 079°57'713.4
2017-Sep-17 07:30N 25°43' W 079°56'713.8
2017-Sep-17 07:00N 25°50' W 079°55'713.7
2017-Sep-17 06:30N 25°56' W 079°55'5314.0
2017-Sep-17 02:42N 26°50' W 079°55'314.1
2017-Sep-17 02:29N 26°53' W 079°55'713.9
2017-Sep-17 02:00N 26°59' W 079°54'  
2017-Sep-14 15:06N 38°55' W 075°06'2 9.5
2017-Sep-14 14:54N 38°56' W 075°06'512.2
2017-Sep-14 14:30N 39°01' W 075°09'612.4
2017-Sep-14 14:00N 39°06' W 075°12'612.8
2017-Sep-14 13:30N 39°12' W 075°17'612.9
2017-Sep-14 13:00N 39°17' W 075°22'613.0
2017-Sep-14 12:30N 39°22' W 075°27'612.4
2017-Sep-14 12:00N 39°26' W 075°33'510.7
2017-Sep-14 11:31N 39°32' W 075°33'5 9.0
2017-Sep-14 11:00N 39°36' W 075°34'3 6.9
2017-Sep-14 10:31N 39°39' W 075°33'4 7.6
2017-Sep-14 10:01N 39°43' W 075°31'4 7.8
2017-Sep-14 09:30N 39°46' W 075°28'4 7.1
2017-Sep-14 09:00N 39°48' W 075°25'1 1.4
2017-Sep-14 08:29N 39°49' W 075°24'0 0.2
2017-Sep-14 07:59N 39°49' W 075°24'0 0.3
2017-Sep-14 07:29N 39°49' W 075°24'0 0.1
2017-Sep-14 06:59N 39°49' W 075°24'0 0.0
2017-Sep-14 06:29N 39°49' W 075°24'0 0.1
2017-Sep-14 05:59N 39°49' W 075°24'0 0.0
2017-Sep-14 05:29N 39°49' W 075°24'0 0.0
2017-Sep-14 04:59N 39°49' W 075°24'0 0.0
2017-Sep-14 04:29N 39°49' W 075°24'0 0.0
2017-Sep-14 03:59N 39°49' W 075°24'0 0.0
2017-Sep-14 03:29N 39°49' W 075°24'0 0.1
2017-Sep-14 02:59N 39°49' W 075°24'0 0.0
2017-Sep-14 02:29N 39°49' W 075°24'0 0.0
2017-Sep-14 01:59N 39°49' W 075°24'0 0.0
2017-Sep-14 01:30N 39°49' W 075°24'0 0.1
2017-Sep-14 01:00N 39°49' W 075°24'0 0.8
2017-Sep-14 00:31N 39°49' W 075°24'2 3.6
2017-Sep-14 00:00N 39°50' W 075°22'3 7.0
2017-Sep-13 23:31N 39°51' W 075°17'3 6.7
2017-Sep-13 23:00N 39°52' W 075°13'3 5.7
2017-Sep-13 22:31N 39°53' W 075°10'0 0.5
2017-Sep-13 22:00N 39°53' W 075°09'0 0.0
2017-Sep-13 21:30N 39°53' W 075°09'0 0.0
2017-Sep-13 21:00N 39°53' W 075°09'0 0.0
2017-Sep-13 20:30N 39°53' W 075°09'0 0.0
2017-Sep-13 19:57N 39°53' W 075°09'0 0.0
2017-Sep-13 19:30N 39°53' W 075°09'0 0.0
2017-Sep-13 18:54N 39°53' W 075°09'0 0.0
2017-Sep-13 18:30N 39°53' W 075°09'0 0.0
2017-Sep-13 18:00N 39°53' W 075°09'0 0.0
2017-Sep-13 17:30N 39°53' W 075°09'0 0.0
2017-Sep-13 17:00N 39°53' W 075°09'0 0.0
2017-Sep-13 16:30N 39°53' W 075°09'0 0.0
2017-Sep-13 15:57N 39°53' W 075°09'0 0.0
2017-Sep-13 15:30N 39°53' W 075°09'0 0.0
2017-Sep-13 14:59N 39°53' W 075°09'0 0.0
2017-Sep-13 14:29N 39°53' W 075°09'0 0.0
2017-Sep-13 13:59N 39°53' W 075°09'0 0.0
2017-Sep-13 13:26N 39°53' W 075°09'0 0.0
2017-Sep-13 12:59N 39°53' W 075°09'0 0.0
2017-Sep-13 12:29N 39°53' W 075°09'0 0.0
2017-Sep-13 11:59N 39°53' W 075°09'0 0.0
2017-Sep-13 11:29N 39°53' W 075°09'0 0.0
2017-Sep-13 10:59N 39°53' W 075°09'0 0.0
2017-Sep-13 10:29N 39°53' W 075°09'0 0.0
2017-Sep-13 09:59N 39°53' W 075°09'0 0.0
2017-Sep-13 09:29N 39°53' W 075°09'0 0.0
2017-Sep-13 08:59N 39°53' W 075°09'0 0.0
2017-Sep-13 08:29N 39°53' W 075°09'0 0.0
2017-Sep-13 07:59N 39°53' W 075°09'0 0.0
2017-Sep-13 07:29N 39°53' W 075°09'0 0.0
2017-Sep-13 06:59N 39°53' W 075°09'0 0.0
2017-Sep-13 06:29N 39°53' W 075°09'0 0.0
2017-Sep-13 05:58N 39°53' W 075°09'0 0.0
2017-Sep-13 05:28N 39°53' W 075°09'0 0.0
2017-Sep-13 04:58N 39°53' W 075°09'0 0.0
2017-Sep-13 04:28N 39°53' W 075°09'0 0.0
2017-Sep-13 03:58N 39°53' W 075°09'0 0.0
2017-Sep-13 03:28N 39°53' W 075°09'0 0.0
2017-Sep-13 02:58N 39°53' W 075°09'0 0.0
2017-Sep-13 02:28N 39°53' W 075°09'0 0.0
2017-Sep-13 01:58N 39°53' W 075°09'0 0.0
2017-Sep-13 01:28N 39°53' W 075°09'0 0.0
2017-Sep-13 00:58N 39°53' W 075°09'0 0.0
2017-Sep-13 00:28N 39°53' W 075°09'0 0.0
2017-Sep-12 23:58N 39°53' W 075°09'0 0.0
2017-Sep-12 23:28N 39°53' W 075°09'0 0.0
2017-Sep-12 22:58N 39°53' W 075°09'0 0.0
2017-Sep-12 22:28N 39°53' W 075°09'0 0.0
2017-Sep-12 21:58N 39°53' W 075°09'0 0.0
2017-Sep-12 21:28N 39°53' W 075°09'0 0.0
2017-Sep-12 20:58N 39°53' W 075°09'0 0.0
2017-Sep-12 20:28N 39°53' W 075°09'0 0.0
2017-Sep-12 19:55N 39°53' W 075°09'0 0.0
2017-Sep-12 19:28N 39°53' W 075°09'0 0.0
2017-Sep-12 18:58N 39°53' W 075°09'0 0.0
2017-Sep-12 18:28N 39°53' W 075°09'0 0.0
2017-Sep-12 17:58N 39°53' W 075°09'0 0.0
2017-Sep-12 17:28N 39°53' W 075°09'0 0.0
2017-Sep-12 16:58N 39°53' W 075°09'0 0.0
2017-Sep-12 16:28N 39°53' W 075°09'0 0.0
2017-Sep-12 15:58N 39°53' W 075°09'0 0.0
2017-Sep-12 15:28N 39°53' W 075°09'0 0.0
2017-Sep-12 14:58N 39°53' W 075°09'0 0.0
2017-Sep-12 14:31N 39°53' W 075°09'0 0.0
2017-Sep-12 14:01N 39°53' W 075°09'0 0.0
2017-Sep-12 13:28N 39°53' W 075°09'0 0.0
2017-Sep-12 13:00N 39°53' W 075°09'0 0.0
2017-Sep-12 09:16N 39°53' W 075°09'0 0.0
2017-Sep-12 09:00N 39°53' W 075°09'0 0.0
2017-Sep-12 08:30N 39°53' W 075°09'0 0.0
2017-Sep-12 08:01N 39°53' W 075°09'0 0.0
2017-Sep-12 07:31N 39°53' W 075°09'0 0.0
2017-Sep-12 07:01N 39°53' W 075°09'0 0.0
2017-Sep-12 06:31N 39°53' W 075°09'0 0.0
2017-Sep-12 06:01N 39°53' W 075°09'0 0.0
2017-Sep-12 05:30N 39°53' W 075°09'0 0.0
2017-Sep-12 05:00N 39°53' W 075°09'0 0.0
2017-Sep-12 04:30N 39°53' W 075°09'0 0.0
2017-Sep-12 04:01N 39°53' W 075°09'0 0.0
2017-Sep-12 03:31N 39°53' W 075°09'0 0.0
2017-Sep-12 03:01N 39°53' W 075°09'0 0.0
2017-Sep-12 02:31N 39°53' W 075°09'0 0.0
2017-Sep-12 02:00N 39°53' W 075°09'  

Dump ship's entire track history